CST,Max TemperatureF,Mean TemperatureF,Min TemperatureF,Max Dew PointF,MeanDew PointF,Min DewpointF,Max Humidity, Mean Humidity, Min Humidity, Max Sea Level PressureIn, Mean Sea Level PressureIn, Min Sea Level PressureIn, Max VisibilityMiles, Mean VisibilityMiles, Min VisibilityMiles, Max Wind SpeedMPH, Mean Wind SpeedMPH, Max Gust SpeedMPH,PrecipitationIn, CloudCover, Events, WindDirDegrees
2012-1-1,40,33,25,34,21,14,85,61,37,30.39,30.15,29.68,10,10,10,38,25,53,0.03,4,Rain,305
2012-1-2,27,20,13,15,9,3,80,59,37,30.56,30.46,30.35,10,10,10,36,20,46,0.00,3,,315
2012-1-3,36,22,7,18,10,4,92,64,35,30.54,30.25,29.96,10,10,10,22,9,26,0.00,0,,185
2012-1-4,45,38,30,27,25,22,85,67,49,30.17,30.09,29.95,10,10,10,25,12,30,0.00,0,,275
2012-1-5,65,47,29,30,27,24,78,51,24,30.03,29.90,29.72,10,10,10,17,11,22,0.00,0,,229
2012-1-6,58,46,33,34,30,26,82,58,33,29.97,29.80,29.70,10,10,10,21,10,26,0.00,1,,286
2012-1-7,42,32,22,27,24,19,88,71,54,30.28,30.15,29.98,10,10,10,16,8,23,0.00,0,,308
2012-1-8,41,32,23,27,24,21,92,73,54,30.38,30.32,30.27,10,10,9,8,1,9,0.00,2,,350
2012-1-9,50,36,21,28,25,20,96,68,39,30.27,30.15,30.05,10,10,8,23,12,28,0.00,0,,231
2012-1-10,57,41,25,29,24,22,81,55,29,30.06,29.93,29.75,10,10,8,18,7,22,0.00,0,,209
2012-1-11,54,36,18,34,23,14,92,65,38,29.81,29.70,29.60,10,8,1,35,14,44,T,3,Snow,290
2012-1-12,18,14,10,14,8,3,88,79,70,29.91,29.80,29.73,4,2,1,32,23,40,T,8,Snow,307
2012-1-13,16,10,4,9,6,3,96,79,61,30.11,30.04,29.89,10,9,4,24,10,32,T,5,Snow,275
2012-1-14,29,19,8,23,15,7,100,87,74,30.23,30.10,29.98,10,7,2,8,4,9,0.02,6,Snow,124
2012-1-15,44,28,12,29,23,12,100,77,54,30.23,30.04,29.84,10,9,2,26,13,33,0.00,0,,160
2012-1-16,45,38,30,36,32,28,92,81,70,29.82,29.73,29.67,10,10,5,15,9,18,0.00,4,,336
2012-1-17,31,18,4,29,16,1,92,74,56,30.40,30.03,29.70,10,4,0,31,16,39,0.07,6,Fog-Snow,311
2012-1-18,30,15,0,17,9,-1,95,74,53,30.39,30.10,29.85,10,10,10,24,10,31,0.00,2,,193
2012-1-19,27,15,2,19,-2,-9,76,66,55,30.25,30.12,29.88,10,8,2,28,13,32,T,5,Snow,360
2012-1-20,13,8,2,10,3,-6,92,77,61,30.23,30.09,29.97,10,7,1,20,11,23,T,8,Snow,57
2012-1-21,24,17,10,19,13,6,84,79,74,30.28,30.15,29.89,10,10,8,21,11,28,0.00,8,,95
2012-1-22,37,30,22,37,30,20,100,92,84,29.88,29.61,29.33,10,2,0,25,13,32,0.08,8,Fog-Rain,142
2012-1-23,36,32,27,36,27,20,100,85,69,30.06,29.67,29.33,10,6,0,26,16,36,0.04,8,Fog-Rain-Snow,282
2012-1-24,34,29,24,25,22,19,85,76,66,30.32,30.25,30.07,10,10,9,14,7,16,0.00,4,,10
2012-1-25,39,32,24,31,27,22,92,78,64,30.30,30.15,29.99,10,8,5,17,9,21,0.00,6,,124
2012-1-26,47,40,32,36,32,28,100,77,53,29.98,29.83,29.75,10,6,0,21,9,29,0.00,5,Fog,259
2012-1-27,36,30,23,32,27,22,96,83,70,30.06,29.96,29.85,10,8,2,24,8,30,0.01,6,Snow,245
2012-1-28,42,33,24,23,19,16,75,57,38,30.20,30.15,30.08,10,10,10,22,12,30,0.00,1,,251
2012-1-29,37,32,27,21,18,15,75,60,44,30.26,30.17,30.06,10,10,10,21,10,28,0.00,2,,271
2012-1-30,65,49,32,40,29,18,70,49,27,30.04,29.85,29.76,10,10,10,26,15,33,0.00,0,,203
2012-1-31,60,49,38,48,42,33,86,70,53,30.02,29.83,29.77,10,10,10,25,13,31,0.00,3,,248